Time;durP1;ratioP1;P1;durP2;ratioP2;P2;SDS_P1;SDS_P2;PMS_P1;PMS_P2;Temp;Humidity;BMP_temperature;BMP_pressure;BME280_temperature;BME280_humidity;BME280_pressure;Samples;Min_cycle;Max_cycle;Signal;HPM_P1;HPM_P2
2021/08/15 00:01:12;;;;;;;18.63;13.30;;;19.70;1.00;20.70;100725.00;;;;4972346;28;21259;-80
2021/08/15 00:03:41;;;;;;;17.03;13.47;;;19.70;1.00;20.70;100718.00;;;;4968667;28;20523;-80
2021/08/15 00:06:10;;;;;;;12.63;10.17;;;19.60;1.00;20.60;100713.00;;;;4974131;28;20526;-80
2021/08/15 00:08:40;;;;;;;16.53;11.57;;;19.50;1.00;20.50;100719.00;;;;4974311;28;20494;-81
2021/08/15 00:11:08;;;;;;;17.50;12.60;;;19.40;1.00;20.40;100717.00;;;;4972752;28;20455;-80
2021/08/15 00:13:36;;;;;;;22.60;14.00;;;19.30;1.00;20.40;100708.00;;;;4973545;28;20894;-81
2021/08/15 00:16:06;;;;;;;17.67;15.00;;;19.30;1.00;20.30;100710.00;;;;4988337;28;20472;-81
2021/08/15 00:18:36;;;;;;;16.57;14.37;;;19.30;1.00;20.30;100691.00;;;;4969513;28;20448;-81
2021/08/15 00:21:05;;;;;;;21.60;16.47;;;19.20;1.00;20.20;100722.00;;;;4971720;28;20479;-79
2021/08/15 00:23:33;;;;;;;17.43;13.53;;;19.30;1.00;20.20;100713.00;;;;4971565;28;20456;-80
2021/08/15 00:26:03;;;;;;;18.67;14.40;;;19.20;1.00;20.20;100712.00;;;;4975419;28;20960;-79
2021/08/15 00:28:31;;;;;;;10.80;7.80;;;19.30;1.00;20.20;100709.00;;;;4970187;28;20452;-79
2021/08/15 00:31:00;;;;;;;8.60;6.73;;;19.30;1.00;20.30;100708.00;;;;4974012;28;20495;-80
2021/08/15 00:33:28;;;;;;;15.43;11.37;;;19.30;1.00;20.30;100705.00;;;;4967254;28;20554;-79
2021/08/15 00:35:57;;;;;;;14.43;10.37;;;19.40;1.00;20.30;100709.00;;;;4958589;28;20459;-80
2021/08/15 00:38:25;;;;;;;16.73;12.70;;;19.30;1.00;20.20;100706.00;;;;4962181;28;20459;-80
2021/08/15 00:40:53;;;;;;;12.73;8.33;;;19.30;1.00;20.20;100699.00;;;;4966995;28;20495;-79
2021/08/15 00:43:24;;;;;;;12.70;11.40;;;19.30;1.00;20.20;100707.00;;;;4965074;28;20471;-80
2021/08/15 00:45:52;;;;;;;13.07;8.30;;;19.30;1.00;20.00;100687.00;;;;4970083;28;22550;-80
2021/08/15 00:48:20;;;;;;;12.77;9.77;;;19.20;1.00;20.10;100670.00;;;;4969683;28;20467;-80
2021/08/15 00:50:49;;;;;;;10.60;9.00;;;19.20;1.00;20.10;100702.00;;;;4973319;28;20486;-80
2021/08/15 00:53:17;;;;;;;11.60;8.10;;;19.10;1.00;20.10;100699.00;;;;4982779;28;20574;-79
2021/08/15 00:55:45;;;;;;;11.60;8.97;;;19.10;1.00;20.00;100691.00;;;;4987255;28;20452;-80
2021/08/15 00:58:16;;;;;;;10.97;8.47;;;19.10;1.00;20.00;100658.00;;;;4978208;28;21006;-79
2021/08/15 01:00:46;;;;;;;8.03;7.07;;;19.10;1.00;20.00;100692.00;;;;4976964;28;20633;-79
2021/08/15 01:03:14;;;;;;;11.27;8.33;;;19.00;1.00;19.90;100681.00;;;;4972671;28;20487;-79
2021/08/15 01:05:43;;;;;;;12.57;8.50;;;19.00;1.00;19.90;100691.00;;;;4986829;28;20451;-79
2021/08/15 01:08:11;;;;;;;11.23;8.33;;;18.90;1.00;19.80;100685.00;;;;4969635;28;20486;-79
2021/08/15 01:10:39;;;;;;;10.83;7.40;;;18.80;1.00;19.80;100687.00;;;;4969413;28;20481;-79
2021/08/15 01:13:10;;;;;;;11.13;7.57;;;18.90;1.00;19.80;100678.00;;;;4972103;28;20483;-80
2021/08/15 01:15:40;;;;;;;10.87;7.43;;;18.90;1.00;19.80;100688.00;;;;4972637;28;20531;-80
2021/08/15 01:18:25;;;;;;;11.40;7.43;;;18.80;1.00;19.80;100683.00;;;;4983085;28;20463;-81
2021/08/15 01:20:58;;;;;;;10.93;7.07;;;18.80;1.00;19.70;100688.00;;;;4979490;28;20479;-80
2021/08/15 01:23:27;;;;;;;11.17;7.33;;;18.70;1.00;19.60;100655.00;;;;4973760;28;20458;-80
2021/08/15 01:25:55;;;;;;;10.00;6.33;;;18.70;1.00;19.60;100641.00;;;;4973259;28;20459;-81
2021/08/15 01:28:25;;;;;;;9.57;5.80;;;18.60;1.00;19.60;100641.00;;;;4975288;28;20824;-80
2021/08/15 01:30:54;;;;;;;7.40;5.90;;;18.60;1.00;19.50;100674.00;;;;4963928;28;20579;-81
2021/08/15 01:33:29;;;;;;;8.07;5.40;;;18.60;1.00;19.50;100666.00;;;;4967523;28;21034;-80
2021/08/15 01:35:59;;;;;;;8.13;5.10;;;18.60;1.00;19.50;100678.00;;;;5003855;28;20466;-80
2021/08/15 01:38:30;;;;;;;10.23;7.00;;;18.70;1.00;19.50;100691.00;;;;4989513;28;20495;-79
2021/08/15 01:40:59;;;;;;;7.70;6.77;;;18.50;1.00;19.40;100664.00;;;;4985008;28;20494;-79
2021/08/15 01:43:30;;;;;;;9.77;6.77;;;18.40;1.00;19.30;100672.00;;;;4995095;28;20465;-79
2021/08/15 01:45:59;;;;;;;7.57;6.00;;;18.30;1.00;19.30;100673.00;;;;4991287;28;20472;-79
2021/08/15 01:48:27;;;;;;;10.03;6.20;;;18.20;1.00;19.30;100647.00;;;;4975836;28;20511;-79
2021/08/15 01:50:56;;;;;;;7.70;5.90;;;18.20;1.00;19.20;100675.00;;;;4970870;28;20462;-79
2021/08/15 01:53:24;;;;;;;9.30;6.43;;;18.20;1.00;19.20;100655.00;;;;4984900;28;20495;-79
2021/08/15 01:55:52;;;;;;;7.70;6.20;;;18.10;1.00;19.10;100663.00;;;;4969503;28;20448;-79
2021/08/15 01:58:20;;;;;;;7.80;5.73;;;18.00;1.00;19.10;100659.00;;;;4984434;28;20979;-79
2021/08/15 02:00:50;;;;;;;10.00;6.40;;;18.00;1.00;19.00;100681.00;;;;4968042;28;20479;-79
2021/08/15 02:03:19;;;;;;;10.73;5.80;;;18.00;1.00;19.00;100631.00;;;;4969429;28;20460;-79
2021/08/15 02:05:47;;;;;;;7.80;5.70;;;18.00;1.00;19.00;100651.00;;;;4968019;28;20543;-79
2021/08/15 02:08:15;;;;;;;14.43;6.70;;;17.90;1.00;19.00;100659.00;;;;4968182;28;20966;-79
2021/08/15 02:10:44;;;;;;;10.17;5.93;;;17.90;1.00;18.90;100662.00;;;;4968437;28;20972;-80
2021/08/15 02:13:12;;;;;;;10.53;6.17;;;17.90;1.00;18.80;100654.00;;;;4964406;28;20483;-79
2021/08/15 02:15:41;;;;;;;8.63;7.00;;;17.90;1.00;18.90;100659.00;;;;4969558;28;20474;-79
2021/08/15 02:18:10;;;;;;;11.20;6.87;;;17.90;1.00;18.90;100658.00;;;;4967729;28;20518;-79
2021/08/15 02:20:39;;;;;;;10.33;6.53;;;17.80;1.00;18.80;100635.00;;;;4967681;28;20489;-79
2021/08/15 02:23:08;;;;;;;8.10;6.87;;;17.90;1.00;18.80;100657.00;;;;4970585;28;20483;-79
2021/08/15 02:25:36;;;;;;;11.30;7.50;;;17.90;1.00;18.80;100637.00;;;;4969221;28;20483;-79
2021/08/15 02:28:05;;;;;;;10.07;6.70;;;17.80;1.00;18.80;100659.00;;;;4990703;28;20447;-80
2021/08/15 02:30:34;;;;;;;9.40;6.90;;;17.70;1.00;18.70;100609.00;;;;4973340;28;20878;-80
2021/08/15 02:33:03;;;;;;;9.43;6.60;;;17.70;1.00;18.70;100644.00;;;;4973875;28;20479;-80
2021/08/15 02:35:33;;;;;;;11.77;8.03;;;17.70;1.00;18.70;100630.00;;;;4978269;28;20460;-80
2021/08/15 02:38:01;;;;;;;11.20;7.47;;;17.70;1.00;18.70;100653.00;;;;4975857;28;20501;-80
2021/08/15 02:40:30;;;;;;;11.20;6.77;;;17.70;1.00;18.60;100609.00;;;;4976014;28;20478;-80
2021/08/15 02:42:58;;;;;;;10.43;7.43;;;17.60;1.00;18.60;100655.00;;;;4991648;28;20479;-80
2021/08/15 02:45:27;;;;;;;10.10;6.93;;;17.60;1.00;18.60;100648.00;;;;4979203;28;20533;-80
2021/08/15 02:47:55;;;;;;;10.73;8.00;;;17.60;1.00;18.50;100650.00;;;;4969719;28;20622;-80
2021/08/15 02:50:24;;;;;;;10.83;7.90;;;17.50;1.00;18.50;100655.00;;;;4969852;28;20471;-80
2021/08/15 02:52:54;;;;;;;10.00;7.10;;;17.50;1.00;18.50;100634.00;;;;4970083;28;20471;-80
2021/08/15 02:55:22;;;;;;;9.10;6.87;;;17.50;1.00;18.40;100643.00;;;;4962542;28;20455;-80
2021/08/15 02:57:51;;;;;;;9.93;7.03;;;17.40;1.00;18.40;100644.00;;;;4970806;28;20983;-80
2021/08/15 03:00:19;;;;;;;8.13;6.20;;;17.40;1.00;18.20;100646.00;;;;4972294;28;20523;-80
2021/08/15 03:02:48;;;;;;;10.60;6.43;;;17.50;1.00;18.40;100615.00;;;;4969449;28;20479;-80
2021/08/15 03:05:22;;;;;;;14.23;7.33;;;17.50;1.00;18.30;100646.00;;;;4966599;28;20455;-78
2021/08/15 03:07:50;;;;;;;10.23;7.60;;;17.40;1.00;18.30;100645.00;;;;4967653;28;20455;-79
2021/08/15 03:10:20;;;;;;;8.07;6.83;;;17.30;1.00;18.30;100639.00;;;;4966742;28;20456;-79
2021/08/15 03:12:49;;;;;;;11.33;8.13;;;17.30;1.00;18.20;100647.00;;;;4957632;28;20471;-79
2021/08/15 03:15:17;;;;;;;10.93;7.83;;;17.20;1.00;18.20;100637.00;;;;4963491;28;20892;-79
2021/08/15 03:17:45;;;;;;;10.43;8.23;;;17.10;1.00;18.20;100647.00;;;;4966183;28;20466;-79
2021/08/15 03:20:15;;;;;;;11.13;6.93;;;17.10;1.00;18.10;100639.00;;;;4965446;28;20455;-79
2021/08/15 03:22:43;;;;;;;8.50;6.90;;;17.10;1.00;18.10;100642.00;;;;4966637;28;20992;-79
2021/08/15 03:25:12;;;;;;;10.70;7.23;;;17.10;1.00;18.10;100632.00;;;;4964285;28;20471;-79
2021/08/15 03:27:41;;;;;;;11.70;7.20;;;17.10;1.00;18.10;100636.00;;;;4967257;28;20463;-80
2021/08/15 03:30:10;;;;;;;11.07;7.57;;;17.00;1.00;18.00;100644.00;;;;4969726;28;20457;-79
2021/08/15 03:32:38;;;;;;;9.80;7.43;;;17.00;1.00;18.00;100635.00;;;;4966086;28;20475;-80
2021/08/15 03:35:08;;;;;;;12.30;7.63;;;17.10;1.00;18.00;100637.00;;;;4967891;28;20456;-79
2021/08/15 03:37:36;;;;;;;10.50;7.17;;;17.00;1.00;17.90;100641.00;;;;4992592;28;20451;-80
2021/08/15 03:40:06;;;;;;;11.30;5.80;;;17.00;1.00;17.90;100635.00;;;;4993039;28;20617;-79
2021/08/15 03:42:35;;;;;;;8.57;6.50;;;17.00;1.00;17.90;100621.00;;;;4993786;28;20510;-80
2021/08/15 03:45:08;;;;;;;9.30;6.37;;;17.00;1.00;17.90;100628.00;;;;4983292;28;20979;-80
2021/08/15 03:47:37;;;;;;;10.40;6.63;;;17.00;1.00;17.80;100600.00;;;;4980718;28;20459;-79
2021/08/15 03:50:07;;;;;;;7.00;5.47;;;17.00;1.00;17.90;100602.00;;;;4977803;28;20471;-80
2021/08/15 03:52:39;;;;;;;10.93;6.30;;;17.10;1.00;17.90;100624.00;;;;4976558;28;20482;-79
2021/08/15 03:55:11;;;;;;;11.60;7.27;;;16.90;1.00;17.80;100623.00;;;;4970162;28;20447;-80
2021/08/15 03:57:40;;;;;;;10.00;6.57;;;16.90;1.00;17.80;100627.00;;;;4971845;28;20467;-80
2021/08/15 04:00:11;;;;;;;9.10;6.40;;;16.80;1.00;17.70;100631.00;;;;4974803;28;20455;-80
2021/08/15 04:02:40;;;;;;;8.20;6.90;;;16.70;1.00;17.70;100594.00;;;;4974515;28;20487;-79
2021/08/15 04:05:10;;;;;;;9.80;6.40;;;16.70;1.00;17.70;100593.00;;;;4982077;28;20573;-80
2021/08/15 04:07:38;;;;;;;7.37;6.20;;;16.60;1.00;17.70;100629.00;;;;4969058;28;20448;-79
2021/08/15 04:10:09;;;;;;;12.60;6.20;;;16.60;1.00;17.60;100630.00;;;;4970771;28;20458;-80
2021/08/15 04:12:37;;;;;;;7.90;6.90;;;16.60;1.00;17.60;100636.00;;;;4959148;28;20475;-79
2021/08/15 04:15:07;;;;;;;11.20;6.87;;;16.50;1.00;17.60;100634.00;;;;4969057;28;20531;-79
2021/08/15 04:17:37;;;;;;;10.10;6.30;;;16.60;1.00;17.60;100638.00;;;;4960269;28;20460;-80
2021/08/15 04:20:08;;;;;;;9.33;6.40;;;16.50;1.00;17.60;100637.00;;;;4983766;28;20918;-79
2021/08/15 04:22:36;;;;;;;7.63;6.33;;;16.50;1.00;17.60;100624.00;;;;4972450;28;20488;-79
2021/08/15 04:25:06;;;;;;;7.43;5.47;;;16.70;1.00;17.60;100617.00;;;;4996353;28;21015;-80
2021/08/15 04:27:34;;;;;;;8.43;6.30;;;16.80;1.00;17.60;100631.00;;;;4980912;28;20486;-80
2021/08/15 04:30:03;;;;;;;10.77;6.70;;;16.90;1.00;17.70;100630.00;;;;4988869;28;20973;-80
2021/08/15 04:32:32;;;;;;;8.17;6.13;;;16.90;1.00;17.80;100636.00;;;;4986478;28;20475;-79
2021/08/15 04:35:01;;;;;;;8.97;5.63;;;17.00;1.00;17.80;100628.00;;;;4983784;28;20464;-79
2021/08/15 04:37:30;;;;;;;8.10;5.73;;;17.10;1.00;17.90;100611.00;;;;5001973;28;20608;-79
2021/08/15 04:39:58;;;;;;;7.10;5.30;;;17.10;1.00;17.90;100625.00;;;;4990466;28;20515;-79
2021/08/15 04:42:26;;;;;;;8.07;5.43;;;17.10;1.00;18.00;100616.00;;;;4986583;28;20477;-79
2021/08/15 04:44:55;;;;;;;7.57;5.33;;;17.20;1.00;18.10;100615.00;;;;4982230;28;20470;-79
2021/08/15 04:47:23;;;;;;;8.67;5.73;;;17.30;1.00;18.10;100612.00;;;;4986092;28;20476;-80
2021/08/15 04:49:51;;;;;;;7.33;5.80;;;17.30;1.00;18.10;100606.00;;;;4993894;28;20535;-80
2021/08/15 04:52:21;;;;;;;7.57;5.63;;;17.30;1.00;18.20;100610.00;;;;4992367;28;20542;-80
2021/08/15 04:54:49;;;;;;;8.47;6.03;;;17.10;1.00;18.20;100609.00;;;;4991157;28;20439;-80
2021/08/15 04:57:18;;;;;;;10.40;6.70;;;17.10;1.00;18.20;100595.00;;;;4993935;28;20444;-81
2021/08/15 04:59:46;;;;;;;7.47;5.57;;;17.00;1.00;18.20;100548.00;;;;4990164;28;20456;-81
2021/08/15 05:02:14;;;;;;;9.97;6.03;;;17.10;1.00;18.30;100580.00;;;;4993363;28;20479;-80
2021/08/15 05:04:43;;;;;;;8.40;6.40;;;17.20;1.00;18.40;100618.00;;;;4989092;28;20462;-80
2021/08/15 05:07:11;;;;;;;11.67;6.07;;;17.40;1.00;18.50;100587.00;;;;4978955;28;20451;-80
2021/08/15 05:09:41;;;;;;;8.43;5.50;;;17.60;1.00;18.60;100606.00;;;;4989619;28;20443;-82
2021/08/15 05:12:09;;;;;;;7.60;6.00;;;17.60;1.00;18.60;100578.00;;;;4985243;28;20499;-80
2021/08/15 05:14:38;;;;;;;11.43;6.67;;;17.60;1.00;18.80;100591.00;;;;4979950;28;20448;-81
2021/08/15 05:17:06;;;;;;;7.27;5.83;;;17.60;1.00;18.80;100618.00;;;;4983552;28;20535;-79
2021/08/15 05:19:35;;;;;;;9.40;5.90;;;17.80;1.00;18.90;100610.00;;;;4983857;28;20461;-80
2021/08/15 05:22:04;;;;;;;8.93;5.53;;;17.70;1.00;19.00;100614.00;;;;4965259;28;20484;-80
2021/08/15 05:24:32;;;;;;;8.80;5.50;;;17.80;1.00;19.00;100629.00;;;;4979091;28;20914;-79
2021/08/15 05:27:01;;;;;;;10.50;6.90;;;17.90;1.00;19.10;100623.00;;;;4974108;28;20459;-80
2021/08/15 05:29:30;;;;;;;8.33;5.60;;;18.00;1.00;19.20;100629.00;;;;4975273;28;20470;-80
2021/08/15 05:31:59;;;;;;;8.30;6.40;;;18.10;1.00;19.30;100624.00;;;;4983676;28;20502;-79
2021/08/15 05:34:27;;;;;;;8.30;5.60;;;18.10;1.00;19.30;100625.00;;;;4974272;28;20456;-78
2021/08/15 05:36:55;;;;;;;11.67;7.30;;;18.20;1.00;19.40;100629.00;;;;4975479;28;20467;-79
2021/08/15 05:39:24;;;;;;;7.77;6.53;;;18.20;1.00;19.40;100581.00;;;;4973974;28;20847;-79
2021/08/15 05:41:52;;;;;;;9.87;6.80;;;18.30;1.00;19.50;100632.00;;;;4978443;28;20475;-79
2021/08/15 05:44:22;;;;;;;8.53;6.63;;;18.40;1.00;19.60;100635.00;;;;4979870;28;20455;-79
2021/08/15 05:46:50;;;;;;;9.87;6.43;;;18.50;1.00;19.70;100625.00;;;;4970213;28;20470;-79
2021/08/15 05:49:19;;;;;;;11.10;6.83;;;18.60;1.00;19.80;100618.00;;;;4972950;28;20461;-79
2021/08/15 05:51:47;;;;;;;9.93;6.40;;;18.60;1.00;19.80;100623.00;;;;4972837;28;20566;-79
2021/08/15 05:54:16;;;;;;;7.70;5.90;;;18.70;1.00;19.90;100613.00;;;;4971729;28;20456;-79
2021/08/15 05:56:44;;;;;;;6.90;6.27;;;18.80;1.00;20.00;100598.00;;;;4975896;28;20542;-80
2021/08/15 05:59:12;;;;;;;10.23;6.33;;;18.90;1.00;20.00;100601.00;;;;4978271;28;20530;-80
2021/08/15 06:01:42;;;;;;;10.07;6.80;;;19.00;1.00;20.10;100610.00;;;;4977359;28;20471;-80
2021/08/15 06:04:11;;;;;;;9.60;6.43;;;19.10;1.00;20.20;100627.00;;;;4975178;28;20479;-80
2021/08/15 06:06:39;;;;;;;10.33;6.23;;;19.10;1.00;20.30;100613.00;;;;4978591;28;20551;-79
2021/08/15 06:09:08;;;;;;;8.60;6.20;;;19.20;1.00;20.40;100600.00;;;;4983656;28;20519;-79
2021/08/15 06:11:36;;;;;;;9.60;6.50;;;19.30;1.00;20.40;100610.00;;;;4976915;28;20524;-80
2021/08/15 06:14:04;;;;;;;8.13;6.13;;;19.40;1.00;20.50;100619.00;;;;4968718;28;20459;-78
2021/08/15 06:16:33;;;;;;;10.03;6.60;;;19.40;1.00;20.60;100616.00;;;;4976007;28;20940;-78
2021/08/15 06:19:03;;;;;;;9.93;6.23;;;19.50;1.00;20.70;100614.00;;;;4972273;28;20484;-79
2021/08/15 06:21:31;;;;;;;9.37;6.07;;;19.70;1.00;20.80;100621.00;;;;4960512;28;21083;-79
2021/08/15 06:23:59;;;;;;;8.33;6.50;;;19.80;1.00;20.80;100616.00;;;;4960504;28;20895;-78
2021/08/15 06:26:28;;;;;;;10.50;6.20;;;19.90;1.00;21.00;100613.00;;;;4969111;28;21252;-79
2021/08/15 06:28:57;;;;;;;8.23;6.60;;;19.90;1.00;21.00;100616.00;;;;4968710;28;20468;-79
2021/08/15 06:31:27;;;;;;;10.73;6.60;;;20.00;1.00;21.10;100614.00;;;;4970566;28;20827;-80
2021/08/15 06:33:56;;;;;;;9.70;6.17;;;20.10;1.00;21.10;100607.00;;;;4970496;28;20463;-79
2021/08/15 06:36:26;;;;;;;8.30;6.17;;;20.20;1.00;21.20;100583.00;;;;4976384;28;20527;-80
2021/08/15 06:38:55;;;;;;;8.77;5.50;;;20.20;1.00;21.20;100614.00;;;;4972708;28;20451;-78
2021/08/15 06:41:23;;;;;;;7.20;5.40;;;20.30;1.00;21.20;100599.00;;;;4967697;28;20459;-79
2021/08/15 06:43:51;;;;;;;7.10;5.30;;;20.30;1.00;21.30;100609.00;;;;4967481;28;21028;-78
2021/08/15 06:46:20;;;;;;;7.87;5.27;;;20.40;1.00;21.30;100599.00;;;;4968635;28;20467;-80
2021/08/15 06:48:48;;;;;;;8.77;6.13;;;20.50;1.00;21.40;100603.00;;;;4968789;28;20462;-80
2021/08/15 06:51:17;;;;;;;6.37;5.60;;;20.50;1.00;21.40;100592.00;;;;4967106;28;20459;-80
2021/08/15 06:53:47;;;;;;;10.53;6.97;;;20.50;1.00;21.50;100598.00;;;;4968166;28;20546;-80
2021/08/15 06:56:15;;;;;;;8.70;6.50;;;20.70;1.00;21.60;100596.00;;;;4966827;28;20550;-79
2021/08/15 06:58:44;;;;;;;8.53;6.13;;;20.80;1.00;21.80;100591.00;;;;4981270;28;20455;-79
2021/08/15 07:01:13;;;;;;;10.67;5.90;;;20.90;1.00;21.90;100569.00;;;;4968928;28;20455;-79
2021/08/15 07:03:42;;;;;;;8.53;6.10;;;21.10;1.00;22.00;100607.00;;;;4970392;28;20515;-79
2021/08/15 07:06:11;;;;;;;10.83;5.97;;;21.10;1.00;22.00;100592.00;;;;4969095;28;20502;-79
2021/08/15 07:08:39;;;;;;;7.50;5.97;;;21.20;1.00;22.20;100596.00;;;;4971036;28;21142;-80
2021/08/15 07:11:09;;;;;;;8.37;5.33;;;21.30;1.00;22.30;100561.00;;;;4969766;28;20502;-79
2021/08/15 07:13:37;;;;;;;7.80;5.70;;;21.40;1.00;22.30;100593.00;;;;4962585;28;20470;-81
2021/08/15 07:16:06;;;;;;;7.03;5.20;;;21.50;1.00;22.50;100588.00;;;;4971563;28;20571;-80
2021/08/15 07:18:34;;;;;;;10.67;6.40;;;21.60;1.00;22.50;100591.00;;;;4972779;28;20573;-80
2021/08/15 07:21:03;;;;;;;9.13;5.60;;;21.70;1.00;22.60;100589.00;;;;4983862;28;20530;-80
2021/08/15 07:23:31;;;;;;;8.53;5.00;;;21.80;1.00;22.60;100583.00;;;;4978906;28;20840;-80
2021/08/15 07:26:00;;;;;;;7.90;5.40;;;21.90;1.00;22.70;100597.00;;;;4974719;28;20533;-80
2021/08/15 07:28:30;;;;;;;8.40;5.70;;;21.90;1.00;22.80;100568.00;;;;4980666;28;20459;-79
2021/08/15 07:30:59;;;;;;;6.70;5.13;;;22.10;1.00;22.90;100590.00;;;;4976830;28;20478;-80
2021/08/15 07:33:28;;;;;;;11.60;6.00;;;22.10;1.00;23.00;100595.00;;;;4965838;28;20991;-79
2021/08/15 07:35:56;;;;;;;8.33;5.10;;;22.30;1.00;23.10;100591.00;;;;4974595;28;20506;-80
2021/08/15 07:38:25;;;;;;;7.03;5.53;;;22.40;1.00;23.20;100593.00;;;;4975510;28;20526;-80
2021/08/15 07:40:53;;;;;;;10.13;5.90;;;22.50;1.00;23.30;100576.00;;;;4976788;28;20447;-80
2021/08/15 07:43:22;;;;;;;8.17;5.17;;;22.60;1.00;23.40;100579.00;;;;4985397;28;20495;-80
2021/08/15 07:45:52;;;;;;;11.80;5.77;;;22.70;1.00;23.40;100580.00;;;;4991271;28;20499;-83
2021/08/15 07:48:23;;;;;;;8.83;6.00;;;22.80;1.00;23.40;100594.00;;;;4988451;28;20487;-79
2021/08/15 07:50:51;;;;;;;6.63;5.13;;;22.90;1.00;23.70;100569.00;;;;4989115;28;20448;-80
2021/08/15 07:53:23;;;;;;;8.90;5.10;;;23.00;1.00;23.60;100580.00;;;;4982178;28;20899;-80
2021/08/15 07:55:53;;;;;;;6.90;5.57;;;23.10;1.00;23.70;100574.00;;;;4976283;28;20462;-81
2021/08/15 07:58:24;;;;;;;9.60;5.63;;;23.20;1.00;24.00;100569.00;;;;4969128;28;20463;-80
2021/08/15 08:00:55;;;;;;;9.13;5.33;;;23.50;1.00;24.10;100573.00;;;;4974163;28;20513;-80
2021/08/15 08:03:24;;;;;;;11.03;5.13;;;23.60;1.00;24.20;100566.00;;;;4976751;28;20486;-80
2021/08/15 08:05:53;;;;;;;7.33;5.60;;;23.70;1.00;24.20;100574.00;;;;4968032;28;20455;-81
2021/08/15 08:08:21;;;;;;;6.63;5.00;;;23.70;1.00;24.30;100563.00;;;;4972079;28;20471;-81
2021/08/15 08:10:53;;;;;;;9.00;5.30;;;23.80;1.00;24.40;100558.00;;;;4987190;28;20614;-81
2021/08/15 08:13:23;;;;;;;6.47;5.00;;;23.90;1.00;24.50;100562.00;;;;4975088;28;20471;-79
2021/08/15 08:15:54;;;;;;;7.53;4.90;;;24.00;1.00;24.50;100551.00;;;;4978377;28;20473;-81
2021/08/15 08:18:23;;;;;;;7.03;5.50;;;24.10;1.00;24.50;100526.00;;;;4984554;28;20463;-80
2021/08/15 08:20:53;;;;;;;7.43;4.90;;;24.10;1.00;24.30;100553.00;;;;4992985;28;20552;-84
2021/08/15 08:23:21;;;;;;;10.20;5.60;;;24.00;1.00;24.30;100542.00;;;;4993914;28;20470;-79
2021/08/15 08:25:50;;;;;;;8.23;5.27;;;24.00;1.00;24.30;100542.00;;;;4980147;28;20534;-80
2021/08/15 08:28:18;;;;;;;9.10;5.80;;;24.00;1.00;24.30;100551.00;;;;4980281;28;20475;-81
2021/08/15 08:30:47;;;;;;;7.70;5.03;;;24.00;1.00;24.40;100550.00;;;;4989945;28;20462;-80
2021/08/15 08:33:16;;;;;;;8.87;5.77;;;24.10;1.00;24.50;100538.00;;;;4989537;28;21571;-80
2021/08/15 08:35:45;;;;;;;8.40;5.37;;;24.20;1.00;24.70;100531.00;;;;4974968;28;21130;-80
2021/08/15 08:38:13;;;;;;;6.33;4.30;;;24.30;1.00;24.70;100535.00;;;;4974472;28;20460;-80
2021/08/15 08:40:43;;;;;;;6.60;4.60;;;24.50;1.00;24.80;100530.00;;;;4971376;28;20591;-80
2021/08/15 08:43:12;;;;;;;8.40;4.90;;;24.50;1.00;24.90;100526.00;;;;4971645;28;20476;-80
2021/08/15 08:45:45;;;;;;;7.20;4.43;;;24.70;1.00;25.00;100533.00;;;;4971008;28;20481;-80
2021/08/15 08:48:17;;;;;;;7.70;4.80;;;24.80;1.00;25.00;100531.00;;;;4972139;28;20455;-80
2021/08/15 08:50:45;;;;;;;6.03;3.83;;;24.90;1.00;25.30;100500.00;;;;4971768;28;20459;-81
2021/08/15 08:53:13;;;;;;;5.70;3.67;;;25.10;1.00;25.20;100520.00;;;;4962776;28;20524;-81
2021/08/15 08:55:42;;;;;;;5.93;4.20;;;25.00;1.00;25.40;100518.00;;;;4975392;28;20451;-80
2021/08/15 08:58:10;;;;;;;6.60;3.87;;;25.10;1.00;25.50;100514.00;;;;4979424;28;20448;-80
2021/08/15 09:00:39;;;;;;;6.80;3.93;;;25.30;1.00;25.60;100491.00;;;;4974383;28;20511;-80
2021/08/15 09:03:07;;;;;;;4.80;3.60;;;25.50;1.00;25.70;100506.00;;;;4971412;28;20505;-80
2021/08/15 09:05:37;;;;;;;4.20;3.40;;;25.60;1.00;25.70;100506.00;;;;4968691;28;20530;-80
2021/08/15 09:08:07;;;;;;;4.90;3.57;;;25.50;1.00;25.70;100510.00;;;;4970453;28;20929;-80
2021/08/15 09:10:38;;;;;;;5.00;3.97;;;25.50;1.00;25.70;100518.00;;;;4971596;28;20467;-80
2021/08/15 09:13:09;;;;;;;6.73;3.50;;;25.50;1.00;25.70;100514.00;;;;4988231;28;20487;-80
2021/08/15 09:15:38;;;;;;;6.33;3.37;;;25.50;1.00;25.60;100520.00;;;;4974060;28;20464;-80
2021/08/15 09:18:07;;;;;;;6.60;3.93;;;25.50;1.00;25.60;100510.00;;;;4976248;28;20451;-81
2021/08/15 09:20:43;;;;;;;3.20;2.73;;;25.40;1.00;25.50;100508.00;;;;4995997;28;20483;-81
2021/08/15 09:23:27;;;;;;;4.30;2.67;;;25.40;1.00;25.40;100482.00;;;;4975517;28;20522;-80
2021/08/15 09:26:18;;;;;;;6.37;3.03;;;25.30;1.00;25.40;100499.00;;;;4998340;28;20471;-80
2021/08/15 09:28:48;;;;;;;5.40;3.27;;;25.30;1.00;25.50;100507.00;;;;4974362;28;20494;-80
2021/08/15 09:31:23;;;;;;;6.53;3.60;;;25.40;1.00;25.50;100505.00;;;;4974772;28;20474;-80
2021/08/15 09:33:54;;;;;;;5.00;3.20;;;25.50;1.00;25.60;100478.00;;;;4977292;28;21042;-80
2021/08/15 09:36:31;;;;;;;4.93;3.40;;;25.60;1.00;25.70;100483.00;;;;4975992;28;20545;-80
2021/08/15 09:39:02;;;;;;;4.10;2.10;;;25.70;1.00;25.60;100488.00;;;;4975108;28;20542;-80
2021/08/15 09:41:34;;;;;;;3.63;2.40;;;25.70;1.00;25.70;100480.00;;;;4970594;28;20475;-79
2021/08/15 09:44:21;;;;;;;4.30;2.50;;;25.70;1.00;25.70;100482.00;;;;4970117;28;20574;-80
2021/08/15 09:47:02;;;;;;;3.70;2.30;;;25.70;1.00;25.80;100481.00;;;;4970416;28;20946;-80
2021/08/15 09:49:40;;;;;;;3.33;2.60;;;25.90;1.00;25.90;100489.00;;;;4973453;28;20447;-80
2021/08/15 09:52:12;;;;;;;4.77;2.37;;;26.10;1.00;26.00;100490.00;;;;4974736;28;20484;-79
2021/08/15 09:54:41;;;;;;;3.40;2.07;;;26.20;1.00;26.00;100485.00;;;;4986725;28;20459;-79
2021/08/15 09:57:29;;;;;;;3.20;2.50;;;26.20;1.00;26.10;100490.00;;;;4971411;28;20447;-78
2021/08/15 10:00:08;;;;;;;3.30;2.40;;;26.20;1.00;26.10;100487.00;;;;4971991;28;20535;-79
2021/08/15 10:02:42;;;;;;;3.70;2.00;;;26.20;1.00;26.00;100480.00;;;;4979594;28;20518;-78
2021/08/15 10:05:11;;;;;;;3.50;2.20;;;26.20;1.00;26.10;100476.00;;;;4979050;28;20499;-79
2021/08/15 10:07:41;;;;;;;3.60;2.27;;;26.20;1.00;26.10;100467.00;;;;4981866;28;20451;-80
2021/08/15 10:10:12;;;;;;;4.70;2.30;;;26.30;1.00;26.10;100464.00;;;;4977986;28;20550;-83
2021/08/15 10:12:41;;;;;;;3.93;2.20;;;26.30;1.00;26.10;100464.00;;;;4981030;28;20482;-81
2021/08/15 10:15:12;;;;;;;2.83;2.00;;;26.30;1.00;26.20;100431.00;;;;4972802;28;20458;-80
2021/08/15 10:17:44;;;;;;;3.83;2.00;;;26.40;1.00;26.30;100441.00;;;;4970335;28;20480;-80
2021/08/15 10:20:21;;;;;;;3.37;2.30;;;26.60;1.00;26.30;100463.00;;;;4972347;28;20467;-80
2021/08/15 10:22:52;;;;;;;2.70;2.10;;;26.70;1.00;26.50;100452.00;;;;4969596;28;20475;-80
2021/08/15 10:25:35;;;;;;;3.60;2.17;;;26.90;1.00;26.60;100438.00;;;;4967476;28;20571;-79
2021/08/15 10:28:05;;;;;;;3.07;2.17;;;27.00;1.00;26.70;100451.00;;;;4967861;28;20455;-80
2021/08/15 10:30:56;;;;;;;4.03;2.33;;;27.10;1.00;26.70;100432.00;;;;4970143;28;20466;-79
2021/08/15 10:33:27;;;;;;;5.23;2.93;;;27.10;1.00;26.80;100449.00;;;;4990193;28;20503;-80
2021/08/15 10:36:28;;;;;;;3.83;2.57;;;27.10;1.00;26.90;100444.00;;;;4980133;28;20447;-80
2021/08/15 10:39:01;;;;;;;3.60;2.40;;;27.10;1.00;26.90;100447.00;;;;4960905;28;20471;-80
2021/08/15 10:41:59;;;;;;;3.77;2.67;;;27.10;1.00;27.00;100417.00;;;;4972580;28;20475;-80
2021/08/15 10:44:27;;;;;;;3.73;2.57;;;27.40;1.00;27.00;100446.00;;;;4912862;29;20462;-80
2021/08/15 10:47:16;;;;;;;5.27;2.70;;;27.40;1.00;27.10;100439.00;;;;4956642;28;20461;-80
2021/08/15 10:49:57;;;;;;;4.07;2.83;;;27.40;1.00;27.20;100436.00;;;;4976980;28;21051;-81
2021/08/15 10:52:39;;;;;;;3.83;2.37;;;27.60;1.00;27.30;100433.00;;;;4972572;28;20526;-81
2021/08/15 10:55:15;;;;;;;3.23;2.57;;;27.80;1.00;27.40;100426.00;;;;4971313;28;20968;-79
2021/08/15 10:57:50;;;;;;;3.80;2.30;;;28.00;1.00;27.50;100421.00;;;;4967182;28;20459;-80
2021/08/15 11:00:47;;;;;;;4.77;2.77;;;28.00;1.00;27.60;100391.00;;;;4968721;28;20494;-80
2021/08/15 11:03:59;;;;;;;4.87;2.70;;;28.10;1.00;27.70;100418.00;;;;4967270;28;20477;-80
2021/08/15 11:06:48;;;;;;;2.90;2.30;;;28.20;1.00;27.80;100409.00;;;;4972382;28;20878;-81